createdAt,value
2022-12-11T00:01:14.456Z,1.70
2022-12-11T00:03:41.797Z,1.70
2022-12-11T00:06:12.309Z,1.70
2022-12-11T00:08:40.308Z,1.70
2022-12-11T00:11:10.101Z,1.70
2022-12-11T00:13:37.209Z,1.70
2022-12-11T00:16:04.594Z,1.80
2022-12-11T00:18:31.948Z,1.80
2022-12-11T00:21:03.915Z,1.80
2022-12-11T00:23:31.506Z,1.90
2022-12-11T00:25:58.771Z,1.90
2022-12-11T00:28:25.820Z,1.80
2022-12-11T00:30:53.100Z,1.90
2022-12-11T00:33:20.145Z,1.90
2022-12-11T00:35:48.115Z,1.90
2022-12-11T00:38:17.693Z,1.90
2022-12-11T00:40:45.159Z,1.90
2022-12-11T00:43:12.775Z,1.90
2022-12-11T00:45:43.014Z,1.90
2022-12-11T00:48:11.207Z,1.90
2022-12-11T00:50:39.127Z,1.90
2022-12-11T00:53:07.392Z,1.90
2022-12-11T00:55:39.107Z,2.00
2022-12-11T00:58:06.273Z,2.00
2022-12-11T01:00:33.773Z,2.00
2022-12-11T01:03:01.025Z,1.90
2022-12-11T01:05:28.127Z,2.00
2022-12-11T01:07:55.276Z,1.90
2022-12-11T01:10:24.408Z,1.90
2022-12-11T01:13:01.675Z,1.90
2022-12-11T01:15:33.653Z,1.90
2022-12-11T01:18:02.663Z,1.90
2022-12-11T01:20:29.787Z,1.90
2022-12-11T01:22:58.997Z,1.90
2022-12-11T01:25:27.628Z,1.80
2022-12-11T01:27:56.115Z,1.80
2022-12-11T01:30:25.133Z,1.80
2022-12-11T01:32:52.602Z,1.90
2022-12-11T01:35:20.074Z,1.90
2022-12-11T01:37:47.738Z,1.90
2022-12-11T01:40:18.500Z,1.80
2022-12-11T01:42:45.923Z,1.80
2022-12-11T01:45:34.663Z,1.80
2022-12-11T01:48:11.174Z,1.80
2022-12-11T01:50:50.701Z,1.80
2022-12-11T01:53:23.312Z,1.70
2022-12-11T01:55:53.636Z,1.80
2022-12-11T01:58:23.238Z,1.80
2022-12-11T02:00:51.672Z,1.80
2022-12-11T02:03:18.884Z,1.80
2022-12-11T02:05:46.171Z,1.90
2022-12-11T02:08:13.519Z,1.80
2022-12-11T02:10:49.193Z,1.90
2022-12-11T02:13:25.359Z,1.90
2022-12-11T02:16:04.651Z,1.90
2022-12-11T02:18:33.858Z,1.90
2022-12-11T02:21:12.585Z,1.90
2022-12-11T02:24:06.770Z,1.90
2022-12-11T02:26:42.323Z,1.90
2022-12-11T02:29:16.608Z,1.90
2022-12-11T02:31:53.370Z,1.90
2022-12-11T02:34:43.469Z,1.90
2022-12-11T02:37:19.078Z,1.90
2022-12-11T02:39:49.151Z,1.90
2022-12-11T02:42:18.446Z,1.80
2022-12-11T02:44:48.361Z,1.90
2022-12-11T02:47:18.253Z,1.80
2022-12-11T02:49:49.565Z,1.80
2022-12-11T02:52:21.789Z,1.80
2022-12-11T02:54:51.726Z,1.80
2022-12-11T02:57:27.764Z,1.90
2022-12-11T02:59:55.092Z,1.90
2022-12-11T03:02:22.234Z,1.80
2022-12-11T03:04:49.557Z,1.80
2022-12-11T03:07:27.725Z,1.80
2022-12-11T03:09:55.467Z,1.80
2022-12-11T03:12:29.228Z,1.80
2022-12-11T03:15:00.771Z,1.80
2022-12-11T03:17:35.752Z,1.80
2022-12-11T03:20:10.589Z,1.90
2022-12-11T03:22:45.797Z,1.80
2022-12-11T03:25:20.291Z,1.80
2022-12-11T03:27:57.387Z,1.80
2022-12-11T03:30:25.970Z,1.90
2022-12-11T03:33:02.942Z,1.90
2022-12-11T03:35:37.564Z,1.90
2022-12-11T03:38:06.504Z,1.90
2022-12-11T03:40:36.345Z,1.90
2022-12-11T03:43:04.199Z,1.90
2022-12-11T03:45:32.844Z,1.90
2022-12-11T03:48:02.814Z,1.80
2022-12-11T03:50:32.343Z,1.90
2022-12-11T03:53:01.660Z,1.90
2022-12-11T03:55:30.779Z,1.80
2022-12-11T03:57:57.832Z,1.80
2022-12-11T04:00:25.473Z,1.80
2022-12-11T04:03:13.974Z,1.90
2022-12-11T04:05:44.440Z,1.80
2022-12-11T04:08:11.774Z,1.80
2022-12-11T04:10:39.659Z,1.80
2022-12-11T04:13:07.125Z,1.80
2022-12-11T04:15:34.684Z,1.70
2022-12-11T04:18:21.709Z,1.80
2022-12-11T04:21:08.772Z,1.80
2022-12-11T04:23:55.858Z,1.70
2022-12-11T04:26:23.107Z,1.70
2022-12-11T04:28:50.770Z,1.70
2022-12-11T04:31:21.425Z,1.70
2022-12-11T04:33:48.941Z,1.70
2022-12-11T04:36:16.528Z,1.70
2022-12-11T04:38:43.617Z,1.70
2022-12-11T04:41:14.017Z,1.70
2022-12-11T04:43:41.385Z,1.70
2022-12-11T04:46:13.211Z,1.70
2022-12-11T04:48:41.091Z,1.70
2022-12-11T04:51:09.191Z,1.70
2022-12-11T04:53:36.442Z,1.70
2022-12-11T04:56:08.913Z,1.70
2022-12-11T04:58:37.146Z,1.70
2022-12-11T05:01:09.208Z,1.70
2022-12-11T05:03:36.636Z,1.70
2022-12-11T05:06:04.134Z,1.60
2022-12-11T05:08:31.361Z,1.60
2022-12-11T05:11:00.568Z,1.60
2022-12-11T05:13:29.601Z,1.50
2022-12-11T05:15:57.562Z,1.50
2022-12-11T05:18:25.550Z,1.50
2022-12-11T05:20:57.259Z,1.50
2022-12-11T05:23:24.467Z,1.60
2022-12-11T05:25:54.910Z,1.60
2022-12-11T05:28:24.969Z,1.50
2022-12-11T05:30:56.896Z,1.50
2022-12-11T05:33:25.328Z,1.50
2022-12-11T05:35:52.440Z,1.40
2022-12-11T05:38:20.271Z,1.40
2022-12-11T05:40:57.564Z,1.40
2022-12-11T05:43:25.079Z,1.40
2022-12-11T05:45:52.208Z,1.40
2022-12-11T05:48:19.296Z,1.40
2022-12-11T05:50:57.581Z,1.50
2022-12-11T05:53:24.666Z,1.50
2022-12-11T05:55:51.874Z,1.50
2022-12-11T05:58:20.981Z,1.40
2022-12-11T06:00:48.865Z,1.40
2022-12-11T06:03:16.121Z,1.40
2022-12-11T06:05:43.712Z,1.50
2022-12-11T06:08:10.944Z,1.40
2022-12-11T06:10:38.114Z,1.30
2022-12-11T06:13:05.202Z,1.40
2022-12-11T06:15:32.885Z,1.40
2022-12-11T06:18:00.093Z,1.40
2022-12-11T06:20:27.209Z,1.40
2022-12-11T06:22:54.313Z,1.40
2022-12-11T06:25:21.429Z,1.40
2022-12-11T06:27:48.440Z,1.50
2022-12-11T06:30:16.660Z,1.50
2022-12-11T06:32:44.188Z,1.50
2022-12-11T06:35:11.944Z,1.50
2022-12-11T06:37:40.548Z,1.40
2022-12-11T06:40:10.562Z,1.50
2022-12-11T06:42:37.557Z,1.50
2022-12-11T06:45:05.248Z,1.40
2022-12-11T06:47:33.224Z,1.40
2022-12-11T06:50:01.261Z,1.40
2022-12-11T06:52:28.819Z,1.40
2022-12-11T06:54:57.051Z,1.50
2022-12-11T06:57:24.278Z,1.50
2022-12-11T06:59:51.355Z,1.40
2022-12-11T07:02:19.789Z,1.40
2022-12-11T07:04:53.333Z,1.50
2022-12-11T07:07:22.207Z,1.50
2022-12-11T07:09:49.292Z,1.50
2022-12-11T07:12:17.383Z,1.60
2022-12-11T07:14:44.400Z,1.60
2022-12-11T07:17:11.427Z,1.70
2022-12-11T07:19:38.552Z,1.70
2022-12-11T07:22:05.520Z,1.70
2022-12-11T07:24:32.593Z,1.70
2022-12-11T07:26:59.734Z,1.80
2022-12-11T07:29:26.825Z,1.90
2022-12-11T07:31:54.182Z,1.90
2022-12-11T07:34:21.367Z,1.90
2022-12-11T07:36:48.468Z,2.00
2022-12-11T07:39:16.178Z,2.10
2022-12-11T07:41:43.228Z,2.30
2022-12-11T07:44:11.720Z,2.40
2022-12-11T07:46:40.019Z,2.40
2022-12-11T07:49:07.564Z,2.50
2022-12-11T07:51:36.680Z,2.60
2022-12-11T07:54:08.279Z,2.70
2022-12-11T07:56:35.703Z,2.90
2022-12-11T07:59:05.032Z,2.90
2022-12-11T08:01:36.634Z,3.00
2022-12-11T08:04:06.190Z,3.00
2022-12-11T08:06:35.415Z,3.10
2022-12-11T08:09:04.899Z,3.20
2022-12-11T08:11:31.916Z,3.30
2022-12-11T08:13:59.808Z,3.40
2022-12-11T08:16:27.341Z,3.50
2022-12-11T08:18:54.424Z,3.50
2022-12-11T08:21:24.483Z,3.50
2022-12-11T08:23:52.688Z,3.60
2022-12-11T08:26:24.666Z,3.50
2022-12-11T08:28:52.522Z,3.40
2022-12-11T08:31:19.659Z,3.30
2022-12-11T08:33:47.654Z,3.50
2022-12-11T08:36:18.453Z,3.40
2022-12-11T08:38:46.711Z,3.50
2022-12-11T08:41:17.636Z,3.70
2022-12-11T08:43:44.866Z,3.80
2022-12-11T08:46:12.938Z,3.90
2022-12-11T08:48:41.924Z,4.00
2022-12-11T08:51:13.449Z,4.10
2022-12-11T08:53:40.940Z,4.10
2022-12-11T08:56:10.843Z,4.10
2022-12-11T08:58:38.512Z,4.00
2022-12-11T09:01:11.600Z,4.10
2022-12-11T09:03:40.109Z,4.10
2022-12-11T09:06:09.376Z,4.10
2022-12-11T09:08:36.872Z,3.90
2022-12-11T09:11:07.470Z,4.00
2022-12-11T09:13:34.629Z,4.00
2022-12-11T09:16:05.601Z,4.20
2022-12-11T09:18:33.004Z,4.30
2022-12-11T09:21:04.764Z,4.30
2022-12-11T09:23:31.994Z,4.40
2022-12-11T09:25:59.454Z,4.60
2022-12-11T09:28:26.671Z,4.70
2022-12-11T09:30:53.752Z,4.70
2022-12-11T09:33:20.910Z,4.70
2022-12-11T09:35:58.200Z,4.80
2022-12-11T09:38:26.048Z,4.80
2022-12-11T09:40:53.572Z,5.10
2022-12-11T09:43:32.590Z,5.00
2022-12-11T09:46:03.307Z,4.80
2022-12-11T09:48:34.221Z,4.70
2022-12-11T09:51:14.435Z,4.70
2022-12-11T09:53:41.867Z,4.70
2022-12-11T09:56:09.869Z,4.80
2022-12-11T09:58:37.123Z,4.70
2022-12-11T10:01:15.203Z,4.70
2022-12-11T10:04:03.353Z,4.60
2022-12-11T10:06:54.788Z,4.70
2022-12-11T10:09:27.877Z,4.70
2022-12-11T10:12:06.711Z,4.70
2022-12-11T10:14:53.737Z,4.70
2022-12-11T10:17:27.648Z,4.70
2022-12-11T10:19:58.303Z,4.50
2022-12-11T10:22:29.995Z,4.70
2022-12-11T10:25:17.316Z,4.60
2022-12-11T10:27:45.271Z,4.50
2022-12-11T10:30:13.617Z,4.30
2022-12-11T10:32:41.647Z,4.30
2022-12-11T10:35:18.970Z,4.30
2022-12-11T10:37:46.087Z,4.30
2022-12-11T10:40:13.891Z,4.30
2022-12-11T10:42:51.315Z,4.30
2022-12-11T10:45:18.456Z,4.30
2022-12-11T10:47:45.999Z,4.20
2022-12-11T10:50:29.052Z,4.20
2022-12-11T10:52:56.569Z,4.20
2022-12-11T10:55:28.599Z,4.20
2022-12-11T10:57:59.734Z,4.20
2022-12-11T11:00:37.754Z,4.30
2022-12-11T11:03:19.959Z,4.30
2022-12-11T11:05:49.551Z,4.30
2022-12-11T11:08:22.849Z,4.20
2022-12-11T11:10:56.708Z,4.30
2022-12-11T11:13:26.617Z,4.20
2022-12-11T11:16:03.064Z,4.20
2022-12-11T11:18:32.089Z,4.10
2022-12-11T11:21:00.840Z,4.20
2022-12-11T11:23:28.508Z,4.30
2022-12-11T11:25:58.699Z,4.30
2022-12-11T11:28:31.686Z,4.30
2022-12-11T11:31:10.397Z,4.40
2022-12-11T11:33:45.667Z,4.50
2022-12-11T11:36:23.292Z,4.50
2022-12-11T11:38:59.104Z,4.60
2022-12-11T11:41:34.860Z,4.60
2022-12-11T11:44:07.407Z,4.80
2022-12-11T11:46:37.989Z,4.90
2022-12-11T11:49:14.464Z,4.90
2022-12-11T11:51:46.657Z,4.90
2022-12-11T11:54:27.730Z,4.90
2022-12-11T11:56:57.139Z,4.90
2022-12-11T11:59:31.268Z,4.90
2022-12-11T12:01:58.720Z,4.90
2022-12-11T12:04:32.677Z,4.90
2022-12-11T12:07:39.562Z,4.90
2022-12-11T12:10:29.294Z,5.00
2022-12-11T12:13:23.941Z,5.00
2022-12-11T12:15:59.891Z,5.00
2022-12-11T12:18:45.543Z,4.90
2022-12-11T12:21:29.178Z,4.80
2022-12-11T12:24:19.625Z,4.70
2022-12-11T12:26:53.693Z,4.50
2022-12-11T12:29:41.727Z,4.50
2022-12-11T12:32:14.609Z,4.40
2022-12-11T12:34:56.405Z,4.40
2022-12-11T12:37:31.636Z,4.40
2022-12-11T12:40:26.110Z,4.40
2022-12-11T12:43:13.073Z,4.30
2022-12-11T12:45:51.735Z,4.20
2022-12-11T12:48:19.848Z,4.30
2022-12-11T12:50:51.004Z,4.10
2022-12-11T12:53:23.805Z,4.00
2022-12-11T12:55:53.058Z,4.00
2022-12-11T12:58:27.712Z,4.00
2022-12-11T13:01:06.081Z,4.00
2022-12-11T13:03:48.821Z,3.90
2022-12-11T13:06:16.439Z,4.00
2022-12-11T13:08:48.299Z,4.00
2022-12-11T13:11:18.612Z,3.90
2022-12-11T13:13:54.943Z,3.90
2022-12-11T13:16:26.916Z,3.80
2022-12-11T13:18:54.570Z,3.80
2022-12-11T13:21:30.611Z,3.70
2022-12-11T13:24:21.057Z,3.70
2022-12-11T13:26:49.657Z,3.70
2022-12-11T13:29:37.766Z,3.60
2022-12-11T13:32:24.710Z,3.60
2022-12-11T13:34:57.293Z,3.60
2022-12-11T13:37:33.914Z,3.60
2022-12-11T13:40:08.453Z,3.60
2022-12-11T13:42:38.487Z,3.60
2022-12-11T13:45:06.066Z,3.60
2022-12-11T13:47:35.645Z,3.60
2022-12-11T13:50:21.788Z,3.60
2022-12-11T13:52:58.654Z,3.70
2022-12-11T13:55:33.066Z,3.70
2022-12-11T13:58:00.505Z,3.70
2022-12-11T14:00:32.162Z,3.70
2022-12-11T14:03:04.531Z,3.70
2022-12-11T14:05:31.938Z,3.70
2022-12-11T14:08:05.352Z,3.70
2022-12-11T14:10:33.209Z,3.60
2022-12-11T14:13:05.723Z,3.60
2022-12-11T14:15:35.502Z,3.60
2022-12-11T14:18:04.211Z,3.70
2022-12-11T14:20:34.179Z,3.60
2022-12-11T14:23:18.310Z,3.60
2022-12-11T14:25:56.532Z,3.60
2022-12-11T14:28:27.813Z,3.50
2022-12-11T14:30:59.254Z,3.50
2022-12-11T14:33:32.721Z,3.40
2022-12-11T14:36:02.345Z,3.30
2022-12-11T14:38:37.247Z,3.20
2022-12-11T14:41:13.833Z,3.20
2022-12-11T14:43:48.549Z,3.20
2022-12-11T14:46:22.124Z,3.20
2022-12-11T14:49:00.745Z,3.20
2022-12-11T14:51:33.893Z,3.20
2022-12-11T14:54:03.701Z,3.20
2022-12-11T14:56:31.634Z,3.20
2022-12-11T14:59:02.955Z,3.20
2022-12-11T15:01:32.967Z,3.20
2022-12-11T15:04:07.265Z,3.20
2022-12-11T15:06:42.892Z,3.20
2022-12-11T15:09:17.631Z,3.00
2022-12-11T15:11:45.059Z,3.00
2022-12-11T15:14:14.068Z,3.00
2022-12-11T15:16:43.050Z,3.00
2022-12-11T15:19:29.091Z,2.90
2022-12-11T15:22:04.137Z,2.90
2022-12-11T15:24:39.209Z,2.90
2022-12-11T15:27:07.970Z,2.80
2022-12-11T15:29:38.489Z,2.60
2022-12-11T15:32:09.244Z,2.40
2022-12-11T15:34:43.045Z,2.00
2022-12-11T15:37:19.763Z,1.80
2022-12-11T15:39:47.129Z,1.60
2022-12-11T15:42:24.536Z,1.60
2022-12-11T15:44:52.351Z,1.60
2022-12-11T15:47:24.489Z,1.50
2022-12-11T15:49:56.286Z,1.40
2022-12-11T15:52:23.590Z,1.40
2022-12-11T15:54:50.693Z,1.30
2022-12-11T15:57:21.879Z,1.30
2022-12-11T15:59:51.629Z,1.30
2022-12-11T16:02:18.971Z,1.30
2022-12-11T16:04:46.314Z,1.30
2022-12-11T16:07:18.484Z,1.30
2022-12-11T16:09:47.258Z,1.30
2022-12-11T16:12:14.720Z,1.30
2022-12-11T16:14:42.689Z,1.30
2022-12-11T16:17:13.816Z,1.30
2022-12-11T16:19:43.145Z,1.30
2022-12-11T16:22:11.724Z,1.30
2022-12-11T16:24:40.113Z,1.30
2022-12-11T16:27:09.722Z,1.30
2022-12-11T16:29:38.898Z,1.20
2022-12-11T16:32:08.589Z,1.20
2022-12-11T16:34:37.337Z,1.10
2022-12-11T16:37:07.183Z,1.00
2022-12-11T16:39:35.530Z,0.90
2022-12-11T16:42:02.887Z,0.90
2022-12-11T16:44:30.537Z,0.90
2022-12-11T16:46:58.586Z,0.90
2022-12-11T16:49:25.752Z,0.90
2022-12-11T16:51:53.022Z,0.90
2022-12-11T16:54:20.181Z,0.90
2022-12-11T16:56:47.292Z,0.90
2022-12-11T16:59:14.482Z,0.90
2022-12-11T17:01:42.652Z,0.90
2022-12-11T17:04:10.510Z,0.90
2022-12-11T17:06:37.604Z,0.80
2022-12-11T17:09:04.823Z,0.80
2022-12-11T17:11:31.936Z,0.80
2022-12-11T17:14:00.407Z,0.80
2022-12-11T17:16:30.634Z,0.80
2022-12-11T17:19:00.821Z,0.80
2022-12-11T17:21:28.038Z,0.80
2022-12-11T17:23:55.227Z,0.80
2022-12-11T17:26:22.352Z,0.70
2022-12-11T17:28:49.599Z,0.80
2022-12-11T17:31:19.486Z,0.70
2022-12-11T17:33:47.802Z,0.70
2022-12-11T17:36:17.065Z,0.70
2022-12-11T17:38:44.984Z,0.70
2022-12-11T17:41:20.096Z,0.70
2022-12-11T17:43:49.471Z,0.70
2022-12-11T17:46:18.177Z,0.70
2022-12-11T17:48:46.063Z,0.70
2022-12-11T17:51:14.709Z,0.60
2022-12-11T17:53:41.768Z,0.60
2022-12-11T17:56:09.416Z,0.70
2022-12-11T17:58:36.415Z,0.70
2022-12-11T18:01:08.219Z,0.60
2022-12-11T18:03:36.784Z,0.70
2022-12-11T18:06:07.747Z,0.60
2022-12-11T18:08:35.125Z,0.60
2022-12-11T18:11:13.823Z,0.60
2022-12-11T18:13:41.912Z,0.60
2022-12-11T18:16:13.645Z,0.60
2022-12-11T18:18:41.129Z,0.60
2022-12-11T18:21:08.666Z,0.60
2022-12-11T18:23:35.857Z,0.60
2022-12-11T18:26:03.059Z,0.60
2022-12-11T18:28:32.408Z,0.70
2022-12-11T18:31:01.119Z,0.60
2022-12-11T18:33:29.395Z,0.60
2022-12-11T18:35:56.830Z,0.70
2022-12-11T18:38:24.447Z,0.60
2022-12-11T18:40:51.900Z,0.60
2022-12-11T18:43:19.333Z,0.50
2022-12-11T18:45:46.535Z,0.50
2022-12-11T18:48:14.525Z,0.50
2022-12-11T18:50:45.915Z,0.40
2022-12-11T18:53:13.705Z,0.50
2022-12-11T18:55:44.052Z,0.50
2022-12-11T18:58:14.476Z,0.40
2022-12-11T19:00:42.680Z,0.40
2022-12-11T19:03:11.186Z,0.40
2022-12-11T19:05:42.401Z,0.40
2022-12-11T19:08:12.057Z,0.40
2022-12-11T19:10:45.863Z,0.40
2022-12-11T19:13:14.181Z,0.40
2022-12-11T19:15:43.123Z,0.40
2022-12-11T19:18:11.420Z,0.30
2022-12-11T19:20:48.916Z,0.30
2022-12-11T19:23:16.825Z,0.20
2022-12-11T19:25:46.911Z,0.20
2022-12-11T19:28:15.034Z,0.20
2022-12-11T19:30:45.116Z,0.10
2022-12-11T19:33:13.159Z,0.10
2022-12-11T19:35:41.185Z,0.00
2022-12-11T19:38:08.652Z,0.00
2022-12-11T19:40:41.126Z,0.00
2022-12-11T19:43:08.870Z,0.00
2022-12-11T19:45:36.579Z,-0.10
2022-12-11T19:48:03.866Z,-0.10
2022-12-11T19:50:31.764Z,-0.10
2022-12-11T19:52:59.183Z,-0.20
2022-12-11T19:55:26.338Z,-0.20
2022-12-11T19:57:53.661Z,-0.30
2022-12-11T20:00:20.869Z,-0.40
2022-12-11T20:02:49.226Z,-0.50
2022-12-11T20:05:17.010Z,-0.50
2022-12-11T20:07:45.550Z,-0.60
2022-12-11T20:10:12.907Z,-0.60
2022-12-11T20:12:40.058Z,-0.70
2022-12-11T20:15:07.619Z,-0.70
2022-12-11T20:17:36.833Z,-0.60
2022-12-11T20:20:04.408Z,-0.70
2022-12-11T20:22:31.737Z,-0.70
2022-12-11T20:24:59.601Z,-0.70
2022-12-11T20:27:28.767Z,-0.70
2022-12-11T20:29:56.359Z,-0.70
2022-12-11T20:32:23.891Z,-0.80
2022-12-11T20:34:54.971Z,-0.80
2022-12-11T20:37:22.329Z,-0.90
2022-12-11T20:39:49.567Z,-0.90
2022-12-11T20:42:16.927Z,-1.00
2022-12-11T20:44:49.286Z,-1.00
2022-12-11T20:47:20.064Z,-1.00
2022-12-11T20:49:48.804Z,-1.00
2022-12-11T20:52:18.000Z,-1.00
2022-12-11T20:54:45.815Z,-1.10
2022-12-11T20:57:15.256Z,-1.00
2022-12-11T20:59:44.473Z,-1.00
2022-12-11T21:02:13.066Z,-1.10
2022-12-11T21:04:41.349Z,-1.10
2022-12-11T21:07:10.182Z,-1.00
2022-12-11T21:09:38.232Z,-1.00
2022-12-11T21:12:06.741Z,-1.00
2022-12-11T21:14:34.056Z,-1.00
2022-12-11T21:17:01.378Z,-1.00
2022-12-11T21:19:28.727Z,-1.00
2022-12-11T21:21:56.450Z,-0.90
2022-12-11T21:24:26.810Z,-0.90
2022-12-11T21:26:56.522Z,-0.90
2022-12-11T21:29:26.297Z,-0.90
2022-12-11T21:31:53.850Z,-0.90
2022-12-11T21:34:25.260Z,-0.90
2022-12-11T21:36:56.459Z,-0.90
2022-12-11T21:39:25.440Z,-0.90
2022-12-11T21:41:53.262Z,-0.90
2022-12-11T21:47:07.463Z,-0.90
2022-12-11T21:49:36.958Z,-0.80
2022-12-11T21:52:04.714Z,-0.70
2022-12-11T21:54:32.092Z,-0.70
2022-12-11T21:56:59.154Z,-0.70
2022-12-11T21:59:27.829Z,-0.70
2022-12-11T22:01:55.123Z,-0.70
2022-12-11T22:04:22.185Z,-0.70
2022-12-11T22:06:49.233Z,-0.80
2022-12-11T22:09:17.931Z,-0.80
2022-12-11T22:11:46.331Z,-0.80
2022-12-11T22:14:15.565Z,-0.80
2022-12-11T22:16:43.665Z,-0.90
2022-12-11T22:19:11.090Z,-0.80
2022-12-11T22:21:39.006Z,-0.80
2022-12-11T22:24:06.376Z,-0.90
2022-12-11T22:26:33.495Z,-0.80
2022-12-11T22:29:00.539Z,-0.90
2022-12-11T22:31:28.253Z,-0.90
2022-12-11T22:33:55.458Z,-0.90
2022-12-11T22:36:25.258Z,-0.90
2022-12-11T22:38:53.002Z,-0.90
2022-12-11T22:41:26.660Z,-0.90
2022-12-11T22:43:54.593Z,-0.90
2022-12-11T22:46:24.779Z,-0.90
2022-12-11T22:48:52.075Z,-0.90
2022-12-11T22:51:19.857Z,-0.90
2022-12-11T22:53:47.445Z,-0.90
2022-12-11T22:56:15.202Z,-0.90
2022-12-11T22:58:42.303Z,-0.90
2022-12-11T23:01:13.472Z,-0.90
2022-12-11T23:03:41.036Z,-0.80
2022-12-11T23:06:11.316Z,-0.90
2022-12-11T23:08:40.415Z,-0.90
2022-12-11T23:11:14.825Z,-0.90
2022-12-11T23:13:42.742Z,-1.00
2022-12-11T23:16:10.807Z,-1.00
2022-12-11T23:18:38.871Z,-1.00
2022-12-11T23:21:06.631Z,-1.10
2022-12-11T23:23:33.893Z,-1.00
2022-12-11T23:26:00.985Z,-1.00
2022-12-11T23:28:28.207Z,-0.90
2022-12-11T23:30:55.384Z,-1.00
2022-12-11T23:33:22.548Z,-1.00
2022-12-11T23:35:49.654Z,-1.00
2022-12-11T23:38:17.515Z,-0.90
2022-12-11T23:40:44.994Z,-1.00
2022-12-11T23:43:12.146Z,-1.10
2022-12-11T23:45:39.165Z,-1.10
2022-12-11T23:48:06.289Z,-1.10
2022-12-11T23:50:33.276Z,-1.10
2022-12-11T23:53:00.554Z,-1.10
2022-12-11T23:55:28.183Z,-1.10
2022-12-11T23:57:56.179Z,-1.10
